sensor_id;sensor_type;location;lat;lon;timestamp;pressure;altitude;pressure_sealevel;temperature;humidity
41102;BME280;26845;50.190;19.178;2023-02-04T00:02:09;97868.00;;;2.39;100.00
41102;BME280;26845;50.190;19.178;2023-02-04T00:04:35;97861.09;;;2.38;100.00
41102;BME280;26845;50.190;19.178;2023-02-04T00:07:02;97863.13;;;2.38;100.00
41102;BME280;26845;50.190;19.178;2023-02-04T00:09:28;97862.90;;;2.38;100.00
41102;BME280;26845;50.190;19.178;2023-02-04T00:11:54;97860.71;;;2.39;100.00
41102;BME280;26845;50.190;19.178;2023-02-04T00:14:20;97867.45;;;2.39;100.00
41102;BME280;26845;50.190;19.178;2023-02-04T00:16:46;97861.34;;;2.35;100.00
41102;BME280;26845;50.190;19.178;2023-02-04T00:19:12;97870.16;;;2.35;100.00
41102;BME280;26845;50.190;19.178;2023-02-04T00:21:38;97863.48;;;2.34;100.00
41102;BME280;26845;50.190;19.178;2023-02-04T00:24:05;97864.99;;;2.31;100.00
41102;BME280;26845;50.190;19.178;2023-02-04T00:26:31;97861.29;;;2.28;100.00
41102;BME280;26845;50.190;19.178;2023-02-04T00:28:57;97864.05;;;2.25;100.00
41102;BME280;26845;50.190;19.178;2023-02-04T00:31:23;97857.77;;;2.23;100.00
41102;BME280;26845;50.190;19.178;2023-02-04T00:33:49;97865.16;;;2.22;100.00
41102;BME280;26845;50.190;19.178;2023-02-04T00:36:16;97864.36;;;2.20;100.00
41102;BME280;26845;50.190;19.178;2023-02-04T00:38:42;97857.67;;;2.18;100.00
41102;BME280;26845;50.190;19.178;2023-02-04T00:41:09;97855.05;;;2.18;100.00
41102;BME280;26845;50.190;19.178;2023-02-04T00:43:35;97855.15;;;2.20;100.00
41102;BME280;26845;50.190;19.178;2023-02-04T00:46:01;97852.44;;;2.23;100.00
41102;BME280;26845;50.190;19.178;2023-02-04T00:48:27;97851.94;;;2.24;100.00
41102;BME280;26845;50.190;19.178;2023-02-04T00:50:54;97847.80;;;2.27;100.00
41102;BME280;26845;50.190;19.178;2023-02-04T00:53:19;97840.34;;;2.27;100.00
41102;BME280;26845;50.190;19.178;2023-02-04T00:55:46;97847.13;;;2.30;100.00
41102;BME280;26845;50.190;19.178;2023-02-04T00:58:12;97847.92;;;2.33;100.00
41102;BME280;26845;50.190;19.178;2023-02-04T01:00:38;97833.52;;;2.38;100.00
41102;BME280;26845;50.190;19.178;2023-02-04T01:03:04;97840.13;;;2.40;100.00
41102;BME280;26845;50.190;19.178;2023-02-04T01:05:30;97835.73;;;2.42;100.00
41102;BME280;26845;50.190;19.178;2023-02-04T01:07:56;97829.96;;;2.42;100.00
41102;BME280;26845;50.190;19.178;2023-02-04T01:10:23;97834.73;;;2.41;100.00
41102;BME280;26845;50.190;19.178;2023-02-04T01:12:49;97829.91;;;2.42;100.00
41102;BME280;26845;50.190;19.178;2023-02-04T01:15:18;97824.33;;;2.40;100.00
41102;BME280;26845;50.190;19.178;2023-02-04T01:17:44;97826.90;;;2.40;100.00
41102;BME280;26845;50.190;19.178;2023-02-04T01:20:10;97819.95;;;2.38;100.00
41102;BME280;26845;50.190;19.178;2023-02-04T01:22:36;97819.92;;;2.37;100.00
41102;BME280;26845;50.190;19.178;2023-02-04T01:25:03;97812.16;;;2.38;100.00
41102;BME280;26845;50.190;19.178;2023-02-04T01:27:28;97816.93;;;2.39;100.00
41102;BME280;26845;50.190;19.178;2023-02-04T01:29:55;97816.66;;;2.39;100.00
41102;BME280;26845;50.190;19.178;2023-02-04T01:32:21;97813.55;;;2.37;100.00
41102;BME280;26845;50.190;19.178;2023-02-04T01:34:48;97812.20;;;2.36;100.00
41102;BME280;26845;50.190;19.178;2023-02-04T01:37:14;97813.79;;;2.35;100.00
41102;BME280;26845;50.190;19.178;2023-02-04T01:39:40;97810.98;;;2.35;100.00
41102;BME280;26845;50.190;19.178;2023-02-04T01:42:06;97815.82;;;2.35;100.00
41102;BME280;26845;50.190;19.178;2023-02-04T01:44:32;97823.50;;;2.34;100.00
41102;BME280;26845;50.190;19.178;2023-02-04T01:46:59;97824.98;;;2.35;100.00
41102;BME280;26845;50.190;19.178;2023-02-04T01:49:25;97826.89;;;2.36;100.00
41102;BME280;26845;50.190;19.178;2023-02-04T01:51:51;97829.17;;;2.38;100.00
41102;BME280;26845;50.190;19.178;2023-02-04T01:54:17;97839.29;;;2.40;100.00
41102;BME280;26845;50.190;19.178;2023-02-04T01:56:46;97845.31;;;2.43;100.00
41102;BME280;26845;50.190;19.178;2023-02-04T01:59:15;97860.32;;;2.45;100.00
41102;BME280;26845;50.190;19.178;2023-02-04T02:01:50;97889.33;;;2.47;100.00
41102;BME280;26845;50.190;19.178;2023-02-04T02:04:20;97882.47;;;2.48;100.00
41102;BME280;26845;50.190;19.178;2023-02-04T02:06:53;97876.27;;;2.48;100.00
41102;BME280;26845;50.190;19.178;2023-02-04T02:09:22;97875.30;;;2.45;100.00
41102;BME280;26845;50.190;19.178;2023-02-04T02:11:48;97875.27;;;2.42;100.00
41102;BME280;26845;50.190;19.178;2023-02-04T02:14:14;97877.20;;;2.42;100.00
41102;BME280;26845;50.190;19.178;2023-02-04T02:16:41;97876.30;;;2.42;100.00
41102;BME280;26845;50.190;19.178;2023-02-04T02:19:09;97873.52;;;2.41;100.00
41102;BME280;26845;50.190;19.178;2023-02-04T02:21:48;97881.49;;;2.39;100.00
41102;BME280;26845;50.190;19.178;2023-02-04T02:24:29;97895.48;;;2.39;100.00
41102;BME280;26845;50.190;19.178;2023-02-04T02:26:57;97909.85;;;2.40;100.00
41102;BME280;26845;50.190;19.178;2023-02-04T02:29:25;97908.50;;;2.28;100.00
41102;BME280;26845;50.190;19.178;2023-02-04T02:31:56;97904.11;;;2.12;100.00
41102;BME280;26845;50.190;19.178;2023-02-04T02:34:24;97911.27;;;1.98;100.00
41102;BME280;26845;50.190;19.178;2023-02-04T02:36:51;97916.98;;;1.85;100.00
41102;BME280;26845;50.190;19.178;2023-02-04T02:39:17;97915.70;;;1.77;100.00
41102;BME280;26845;50.190;19.178;2023-02-04T02:41:44;97922.27;;;1.69;100.00
41102;BME280;26845;50.190;19.178;2023-02-04T02:44:11;97926.02;;;1.62;100.00
41102;BME280;26845;50.190;19.178;2023-02-04T02:46:37;97920.34;;;1.53;100.00
41102;BME280;26845;50.190;19.178;2023-02-04T02:49:03;97928.48;;;1.44;100.00
41102;BME280;26845;50.190;19.178;2023-02-04T02:51:29;97929.27;;;1.40;100.00
41102;BME280;26845;50.190;19.178;2023-02-04T02:53:59;97938.24;;;1.40;100.00
41102;BME280;26845;50.190;19.178;2023-02-04T02:56:24;97940.61;;;1.35;100.00
41102;BME280;26845;50.190;19.178;2023-02-04T02:58:50;97943.47;;;1.30;100.00
41102;BME280;26845;50.190;19.178;2023-02-04T03:01:18;97945.06;;;1.25;100.00
41102;BME280;26845;50.190;19.178;2023-02-04T03:03:49;97945.20;;;1.20;100.00
41102;BME280;26845;50.190;19.178;2023-02-04T03:06:24;97945.52;;;1.17;100.00
41102;BME280;26845;50.190;19.178;2023-02-04T03:08:52;97949.31;;;1.11;100.00
41102;BME280;26845;50.190;19.178;2023-02-04T03:11:22;97950.09;;;1.03;100.00
41102;BME280;26845;50.190;19.178;2023-02-04T03:13:51;97957.77;;;0.94;100.00
41102;BME280;26845;50.190;19.178;2023-02-04T03:16:17;97961.00;;;0.85;100.00
41102;BME280;26845;50.190;19.178;2023-02-04T03:18:43;97965.11;;;0.80;100.00
41102;BME280;26845;50.190;19.178;2023-02-04T03:21:09;97974.23;;;0.76;100.00
41102;BME280;26845;50.190;19.178;2023-02-04T03:23:36;97982.44;;;0.70;100.00
41102;BME280;26845;50.190;19.178;2023-02-04T03:26:03;97990.86;;;0.64;100.00
41102;BME280;26845;50.190;19.178;2023-02-04T03:28:30;97990.41;;;0.61;100.00
41102;BME280;26845;50.190;19.178;2023-02-04T03:30:56;97993.27;;;0.60;100.00
41102;BME280;26845;50.190;19.178;2023-02-04T03:33:23;98004.64;;;0.60;100.00
41102;BME280;26845;50.190;19.178;2023-02-04T03:35:59;98003.27;;;0.55;100.00
41102;BME280;26845;50.190;19.178;2023-02-04T03:38:25;98003.64;;;0.53;100.00
41102;BME280;26845;50.190;19.178;2023-02-04T03:40:54;98004.45;;;0.51;100.00
41102;BME280;26845;50.190;19.178;2023-02-04T03:43:21;98006.65;;;0.53;100.00
41102;BME280;26845;50.190;19.178;2023-02-04T03:45:46;98012.23;;;0.53;100.00
41102;BME280;26845;50.190;19.178;2023-02-04T03:48:12;98011.58;;;0.53;100.00
41102;BME280;26845;50.190;19.178;2023-02-04T03:50:38;98027.21;;;0.57;100.00
41102;BME280;26845;50.190;19.178;2023-02-04T03:53:05;98038.55;;;0.58;100.00
41102;BME280;26845;50.190;19.178;2023-02-04T03:55:31;98047.26;;;0.63;100.00
41102;BME280;26845;50.190;19.178;2023-02-04T03:57:58;98059.95;;;0.67;100.00
41102;BME280;26845;50.190;19.178;2023-02-04T04:00:24;98070.36;;;0.72;100.00
41102;BME280;26845;50.190;19.178;2023-02-04T04:02:49;98082.01;;;0.73;100.00
41102;BME280;26845;50.190;19.178;2023-02-04T04:05:16;98092.51;;;0.73;100.00
41102;BME280;26845;50.190;19.178;2023-02-04T04:07:42;98104.53;;;0.71;100.00
41102;BME280;26845;50.190;19.178;2023-02-04T04:10:08;98112.14;;;0.70;100.00
41102;BME280;26845;50.190;19.178;2023-02-04T04:12:34;98135.94;;;0.69;100.00
41102;BME280;26845;50.190;19.178;2023-02-04T04:15:00;98153.10;;;0.64;100.00
41102;BME280;26845;50.190;19.178;2023-02-04T04:17:28;98166.37;;;0.58;100.00
41102;BME280;26845;50.190;19.178;2023-02-04T04:19:54;98183.30;;;0.55;100.00
41102;BME280;26845;50.190;19.178;2023-02-04T04:22:20;98193.02;;;0.53;100.00
41102;BME280;26845;50.190;19.178;2023-02-04T04:24:46;98215.04;;;0.48;100.00
41102;BME280;26845;50.190;19.178;2023-02-04T04:27:12;98238.25;;;0.40;100.00
41102;BME280;26845;50.190;19.178;2023-02-04T04:29:38;98249.13;;;0.33;100.00
41102;BME280;26845;50.190;19.178;2023-02-04T04:32:07;98264.45;;;0.27;100.00
41102;BME280;26845;50.190;19.178;2023-02-04T04:34:34;98284.24;;;0.18;100.00
41102;BME280;26845;50.190;19.178;2023-02-04T04:37:00;98301.17;;;0.17;100.00
41102;BME280;26845;50.190;19.178;2023-02-04T04:39:27;98314.69;;;0.11;100.00
41102;BME280;26845;50.190;19.178;2023-02-04T04:41:56;98335.15;;;0.03;100.00
41102;BME280;26845;50.190;19.178;2023-02-04T04:44:21;98347.61;;;-0.04;100.00
41102;BME280;26845;50.190;19.178;2023-02-04T04:46:48;98363.36;;;-0.10;100.00
41102;BME280;26845;50.190;19.178;2023-02-04T04:49:14;98383.15;;;-0.14;100.00
41102;BME280;26845;50.190;19.178;2023-02-04T04:51:41;98406.36;;;-0.24;100.00
41102;BME280;26845;50.190;19.178;2023-02-04T04:54:07;98408.04;;;-0.35;100.00
41102;BME280;26845;50.190;19.178;2023-02-04T04:56:33;98421.60;;;-0.47;100.00
41102;BME280;26845;50.190;19.178;2023-02-04T04:59:00;98429.08;;;-0.52;100.00
41102;BME280;26845;50.190;19.178;2023-02-04T05:01:28;98448.30;;;-0.57;100.00
41102;BME280;26845;50.190;19.178;2023-02-04T05:03:53;98457.95;;;-0.61;100.00
41102;BME280;26845;50.190;19.178;2023-02-04T05:06:20;98477.62;;;-0.64;100.00
41102;BME280;26845;50.190;19.178;2023-02-04T05:08:53;98489.95;;;-0.65;100.00
41102;BME280;26845;50.190;19.178;2023-02-04T05:11:19;98506.64;;;-0.66;100.00
41102;BME280;26845;50.190;19.178;2023-02-04T05:13:46;98518.08;;;-0.68;100.00
41102;BME280;26845;50.190;19.178;2023-02-04T05:16:12;98539.50;;;-0.70;100.00
41102;BME280;26845;50.190;19.178;2023-02-04T05:18:39;98551.75;;;-0.73;100.00
41102;BME280;26845;50.190;19.178;2023-02-04T05:21:07;98563.25;;;-0.76;100.00
41102;BME280;26845;50.190;19.178;2023-02-04T05:23:34;98576.73;;;-0.80;100.00
41102;BME280;26845;50.190;19.178;2023-02-04T05:26:00;98592.44;;;-0.80;100.00
41102;BME280;26845;50.190;19.178;2023-02-04T05:28:29;98607.51;;;-0.80;100.00
41102;BME280;26845;50.190;19.178;2023-02-04T05:30:54;98619.89;;;-0.80;100.00
41102;BME280;26845;50.190;19.178;2023-02-04T05:33:20;98638.63;;;-0.80;100.00
41102;BME280;26845;50.190;19.178;2023-02-04T05:35:47;98656.67;;;-0.81;100.00
41102;BME280;26845;50.190;19.178;2023-02-04T05:38:13;98674.73;;;-0.82;100.00
41102;BME280;26845;50.190;19.178;2023-02-04T05:40:40;98691.02;;;-0.83;100.00
41102;BME280;26845;50.190;19.178;2023-02-04T05:43:05;98711.82;;;-0.86;100.00
41102;BME280;26845;50.190;19.178;2023-02-04T05:45:31;98732.08;;;-0.88;100.00
41102;BME280;26845;50.190;19.178;2023-02-04T05:47:58;98745.86;;;-0.89;100.00
41102;BME280;26845;50.190;19.178;2023-02-04T05:50:24;98764.09;;;-0.89;100.00
41102;BME280;26845;50.190;19.178;2023-02-04T05:52:50;98775.17;;;-0.92;100.00
41102;BME280;26845;50.190;19.178;2023-02-04T05:55:16;98792.05;;;-0.94;100.00
41102;BME280;26845;50.190;19.178;2023-02-04T05:57:42;98810.95;;;-0.96;100.00
41102;BME280;26845;50.190;19.178;2023-02-04T06:00:13;98826.49;;;-0.97;100.00
41102;BME280;26845;50.190;19.178;2023-02-04T06:02:43;98845.06;;;-1.00;100.00
41102;BME280;26845;50.190;19.178;2023-02-04T06:05:08;98863.60;;;-1.04;100.00
41102;BME280;26845;50.190;19.178;2023-02-04T06:07:35;98872.80;;;-1.04;100.00
41102;BME280;26845;50.190;19.178;2023-02-04T06:10:01;98889.20;;;-1.06;100.00
41102;BME280;26845;50.190;19.178;2023-02-04T06:12:27;98903.67;;;-1.05;100.00
41102;BME280;26845;50.190;19.178;2023-02-04T06:14:53;98917.64;;;-1.05;100.00
41102;BME280;26845;50.190;19.178;2023-02-04T06:17:20;98933.93;;;-1.06;99.98
41102;BME280;26845;50.190;19.178;2023-02-04T06:19:46;98949.08;;;-1.05;100.00
41102;BME280;26845;50.190;19.178;2023-02-04T06:22:12;98963.17;;;-1.04;100.00
41102;BME280;26845;50.190;19.178;2023-02-04T06:24:39;98976.27;;;-1.06;99.63
41102;BME280;26845;50.190;19.178;2023-02-04T06:27:05;98990.75;;;-1.09;99.48
41102;BME280;26845;50.190;19.178;2023-02-04T06:29:31;99003.73;;;-1.12;99.26
41102;BME280;26845;50.190;19.178;2023-02-04T06:31:57;99015.64;;;-1.12;99.48
41102;BME280;26845;50.190;19.178;2023-02-04T06:34:23;99027.17;;;-1.11;99.50
41102;BME280;26845;50.190;19.178;2023-02-04T06:36:50;99041.73;;;-1.11;99.54
41102;BME280;26845;50.190;19.178;2023-02-04T06:39:16;99052.45;;;-1.12;99.45
41102;BME280;26845;50.190;19.178;2023-02-04T06:41:42;99067.00;;;-1.11;99.50
41102;BME280;26845;50.190;19.178;2023-02-04T06:44:08;99080.27;;;-1.10;99.52
41102;BME280;26845;50.190;19.178;2023-02-04T06:46:35;99089.66;;;-1.10;99.07
41102;BME280;26845;50.190;19.178;2023-02-04T06:49:01;99100.31;;;-1.10;99.24
41102;BME280;26845;50.190;19.178;2023-02-04T06:51:27;99110.59;;;-1.08;99.03
41102;BME280;26845;50.190;19.178;2023-02-04T06:53:53;99123.29;;;-1.09;98.71
41102;BME280;26845;50.190;19.178;2023-02-04T06:56:19;99139.39;;;-1.09;98.85
41102;BME280;26845;50.190;19.178;2023-02-04T06:58:48;99151.06;;;-1.09;98.77
41102;BME280;26845;50.190;19.178;2023-02-04T07:01:13;99160.72;;;-1.09;98.89
41102;BME280;26845;50.190;19.178;2023-02-04T07:03:39;99173.16;;;-1.07;99.07
41102;BME280;26845;50.190;19.178;2023-02-04T07:06:06;99183.17;;;-1.06;98.85
41102;BME280;26845;50.190;19.178;2023-02-04T07:08:32;99194.83;;;-1.08;98.53
41102;BME280;26845;50.190;19.178;2023-02-04T07:10:58;99205.88;;;-1.06;98.91
41102;BME280;26845;50.190;19.178;2023-02-04T07:13:26;99218.54;;;-1.05;98.50
41102;BME280;26845;50.190;19.178;2023-02-04T07:15:51;99229.14;;;-1.09;97.88
41102;BME280;26845;50.190;19.178;2023-02-04T07:18:17;99235.84;;;-1.11;98.22
41102;BME280;26845;50.190;19.178;2023-02-04T07:20:44;99242.49;;;-1.14;98.28
41102;BME280;26845;50.190;19.178;2023-02-04T07:23:10;99251.33;;;-1.12;98.23
41102;BME280;26845;50.190;19.178;2023-02-04T07:25:38;99259.71;;;-1.10;98.42
41102;BME280;26845;50.190;19.178;2023-02-04T07:28:06;99272.32;;;-1.09;98.37
41102;BME280;26845;50.190;19.178;2023-02-04T07:30:32;99283.98;;;-1.09;98.33
41102;BME280;26845;50.190;19.178;2023-02-04T07:32:58;99288.88;;;-1.10;98.19
41102;BME280;26845;50.190;19.178;2023-02-04T07:35:24;99296.67;;;-1.10;97.93
41102;BME280;26845;50.190;19.178;2023-02-04T07:37:50;99305.27;;;-1.06;98.29
41102;BME280;26845;50.190;19.178;2023-02-04T07:40:17;99313.91;;;-1.06;97.49
41102;BME280;26845;50.190;19.178;2023-02-04T07:42:42;99320.33;;;-1.07;97.37
41102;BME280;26845;50.190;19.178;2023-02-04T07:45:09;99326.35;;;-1.10;97.31
41102;BME280;26845;50.190;19.178;2023-02-04T07:47:35;99335.95;;;-1.12;97.03
41102;BME280;26845;50.190;19.178;2023-02-04T07:50:03;99346.80;;;-1.13;97.35
41102;BME280;26845;50.190;19.178;2023-02-04T07:52:29;99352.11;;;-1.13;97.03
41102;BME280;26845;50.190;19.178;2023-02-04T07:54:55;99351.69;;;-1.13;97.21
41102;BME280;26845;50.190;19.178;2023-02-04T07:57:24;99357.09;;;-1.11;97.19
41102;BME280;26845;50.190;19.178;2023-02-04T07:59:50;99362.05;;;-1.09;97.18
41102;BME280;26845;50.190;19.178;2023-02-04T08:02:17;99368.09;;;-1.08;97.10
41102;BME280;26845;50.190;19.178;2023-02-04T08:04:43;99373.30;;;-1.09;96.62
41102;BME280;26845;50.190;19.178;2023-02-04T08:07:09;99382.02;;;-1.07;97.11
41102;BME280;26845;50.190;19.178;2023-02-04T08:09:36;99394.16;;;-1.05;96.90
41102;BME280;26845;50.190;19.178;2023-02-04T08:12:02;99404.98;;;-1.06;96.62
41102;BME280;26845;50.190;19.178;2023-02-04T08:14:28;99414.64;;;-1.08;96.55
41102;BME280;26845;50.190;19.178;2023-02-04T08:16:55;99421.52;;;-1.09;96.21
41102;BME280;26845;50.190;19.178;2023-02-04T08:19:20;99431.71;;;-1.11;96.41
41102;BME280;26845;50.190;19.178;2023-02-04T08:21:47;99434.42;;;-1.12;96.47
41102;BME280;26845;50.190;19.178;2023-02-04T08:24:14;99444.59;;;-1.10;96.35
41102;BME280;26845;50.190;19.178;2023-02-04T08:26:41;99448.27;;;-1.08;96.48
41102;BME280;26845;50.190;19.178;2023-02-04T08:29:07;99455.34;;;-1.06;96.02
41102;BME280;26845;50.190;19.178;2023-02-04T08:31:34;99466.04;;;-1.03;95.96
41102;BME280;26845;50.190;19.178;2023-02-04T08:34:04;99469.56;;;-0.98;95.61
41102;BME280;26845;50.190;19.178;2023-02-04T08:36:30;99476.81;;;-0.97;95.66
41102;BME280;26845;50.190;19.178;2023-02-04T08:38:58;99483.89;;;-0.94;95.55
41102;BME280;26845;50.190;19.178;2023-02-04T08:41:23;99487.32;;;-0.89;95.75
41102;BME280;26845;50.190;19.178;2023-02-04T08:43:49;99497.30;;;-0.84;94.69
41102;BME280;26845;50.190;19.178;2023-02-04T08:46:16;99505.19;;;-0.83;95.48
41102;BME280;26845;50.190;19.178;2023-02-04T08:48:42;99514.34;;;-0.80;95.21
41102;BME280;26845;50.190;19.178;2023-02-04T08:51:08;99519.50;;;-0.74;95.27
41102;BME280;26845;50.190;19.178;2023-02-04T08:53:34;99526.75;;;-0.67;95.42
41102;BME280;26845;50.190;19.178;2023-02-04T08:56:03;99524.52;;;-0.60;95.65
41102;BME280;26845;50.190;19.178;2023-02-04T08:58:29;99530.06;;;-0.52;95.35
41102;BME280;26845;50.190;19.178;2023-02-04T09:00:56;99536.63;;;-0.50;94.91
41102;BME280;26845;50.190;19.178;2023-02-04T09:03:22;99541.79;;;-0.45;95.02
41102;BME280;26845;50.190;19.178;2023-02-04T09:05:48;99548.08;;;-0.39;93.98
41102;BME280;26845;50.190;19.178;2023-02-04T09:08:14;99564.73;;;-0.34;94.33
41102;BME280;26845;50.190;19.178;2023-02-04T09:10:40;99571.83;;;-0.29;94.16
41102;BME280;26845;50.190;19.178;2023-02-04T09:13:07;99574.63;;;-0.23;94.09
41102;BME280;26845;50.190;19.178;2023-02-04T09:15:39;99576.42;;;-0.12;93.31
41102;BME280;26845;50.190;19.178;2023-02-04T09:18:05;99574.89;;;-0.03;93.30
41102;BME280;26845;50.190;19.178;2023-02-04T09:20:39;99573.71;;;0.04;93.78
41102;BME280;26845;50.190;19.178;2023-02-04T09:23:05;99577.77;;;0.15;94.01
41102;BME280;26845;50.190;19.178;2023-02-04T09:25:35;99580.22;;;0.39;94.56
41102;BME280;26845;50.190;19.178;2023-02-04T09:28:02;99584.67;;;0.67;94.60
41102;BME280;26845;50.190;19.178;2023-02-04T09:30:28;99592.14;;;0.94;94.51
41102;BME280;26845;50.190;19.178;2023-02-04T09:32:54;99596.20;;;1.15;94.31
41102;BME280;26845;50.190;19.178;2023-02-04T09:35:22;99601.28;;;1.17;93.26
41102;BME280;26845;50.190;19.178;2023-02-04T09:37:47;99610.07;;;1.13;92.56
41102;BME280;26845;50.190;19.178;2023-02-04T09:40:15;99616.41;;;1.37;92.99
41102;BME280;26845;50.190;19.178;2023-02-04T09:42:46;99617.98;;;1.69;93.25
41102;BME280;26845;50.190;19.178;2023-02-04T09:45:29;99622.15;;;2.11;93.25
41102;BME280;26845;50.190;19.178;2023-02-04T09:47:57;99627.95;;;2.16;91.87
41102;BME280;26845;50.190;19.178;2023-02-04T09:50:26;99637.20;;;1.90;90.99
41102;BME280;26845;50.190;19.178;2023-02-04T09:52:55;99639.53;;;1.79;91.70
41102;BME280;26845;50.190;19.178;2023-02-04T09:55:27;99641.08;;;1.65;91.51
41102;BME280;26845;50.190;19.178;2023-02-04T09:57:53;99647.53;;;1.51;91.61
41102;BME280;26845;50.190;19.178;2023-02-04T10:00:23;99654.09;;;1.37;91.56
41102;BME280;26845;50.190;19.178;2023-02-04T10:02:52;99661.35;;;1.20;91.25
41102;BME280;26845;50.190;19.178;2023-02-04T10:05:23;99664.63;;;1.03;91.06
41102;BME280;26845;50.190;19.178;2023-02-04T10:07:51;99666.84;;;0.96;90.17
41102;BME280;26845;50.190;19.178;2023-02-04T10:10:20;99657.05;;;1.23;90.69
41102;BME280;26845;50.190;19.178;2023-02-04T10:12:50;99655.70;;;1.58;90.67
41102;BME280;26845;50.190;19.178;2023-02-04T10:15:18;99662.57;;;1.75;90.22
41102;BME280;26845;50.190;19.178;2023-02-04T10:17:45;99667.44;;;1.74;89.97
41102;BME280;26845;50.190;19.178;2023-02-04T10:20:14;99671.89;;;1.64;88.43
41102;BME280;26845;50.190;19.178;2023-02-04T10:22:40;99671.70;;;1.44;88.46
41102;BME280;26845;50.190;19.178;2023-02-04T10:25:18;99677.89;;;1.29;89.33
41102;BME280;26845;50.190;19.178;2023-02-04T10:30:29;99674.14;;;1.37;88.50
41102;BME280;26845;50.190;19.178;2023-02-04T10:33:14;99677.20;;;1.61;89.54
41102;BME280;26845;50.190;19.178;2023-02-04T10:35:50;99684.16;;;1.75;89.64
41102;BME280;26845;50.190;19.178;2023-02-04T10:38:16;99686.48;;;1.75;88.70
41102;BME280;26845;50.190;19.178;2023-02-04T10:40:42;99692.84;;;1.61;87.36
41102;BME280;26845;50.190;19.178;2023-02-04T10:43:17;99695.67;;;1.66;86.33
41102;BME280;26845;50.190;19.178;2023-02-04T10:45:57;99706.11;;;1.49;85.42
41102;BME280;26845;50.190;19.178;2023-02-04T10:48:24;99705.98;;;1.14;85.53
41102;BME280;26845;50.190;19.178;2023-02-04T10:50:52;99705.13;;;0.84;85.66
41102;BME280;26845;50.190;19.178;2023-02-04T10:53:21;99723.20;;;0.63;85.53
41102;BME280;26845;50.190;19.178;2023-02-04T10:56:18;99722.73;;;0.51;85.60
41102;BME280;26845;50.190;19.178;2023-02-04T10:58:45;99731.85;;;0.43;86.95
41102;BME280;26845;50.190;19.178;2023-02-04T11:01:13;99727.66;;;0.42;87.34
41102;BME280;26845;50.190;19.178;2023-02-04T11:03:39;99730.46;;;0.48;87.22
41102;BME280;26845;50.190;19.178;2023-02-04T11:06:11;99735.34;;;0.69;87.65
41102;BME280;26845;50.190;19.178;2023-02-04T11:08:37;99730.91;;;0.83;87.58
41102;BME280;26845;50.190;19.178;2023-02-04T11:11:06;99736.12;;;0.87;86.37
41102;BME280;26845;50.190;19.178;2023-02-04T11:13:45;99744.66;;;0.81;85.22
41102;BME280;26845;50.190;19.178;2023-02-04T11:16:32;99745.30;;;0.71;85.80
41102;BME280;26845;50.190;19.178;2023-02-04T11:19:02;99746.86;;;0.66;85.62
41102;BME280;26845;50.190;19.178;2023-02-04T11:32:06;99762.88;;;0.62;85.17
41102;BME280;26845;50.190;19.178;2023-02-04T11:34:50;99766.61;;;0.74;85.88
41102;BME280;26845;50.190;19.178;2023-02-04T11:37:33;99769.30;;;0.80;84.86
41102;BME280;26845;50.190;19.178;2023-02-04T11:40:00;99776.41;;;0.70;84.77
41102;BME280;26845;50.190;19.178;2023-02-04T11:42:38;99776.48;;;0.65;85.23
41102;BME280;26845;50.190;19.178;2023-02-04T11:45:23;99781.92;;;0.71;85.30
41102;BME280;26845;50.190;19.178;2023-02-04T11:47:50;99786.58;;;0.68;84.80
41102;BME280;26845;50.190;19.178;2023-02-04T11:50:31;99792.45;;;0.63;84.27
41102;BME280;26845;50.190;19.178;2023-02-04T11:52:59;99793.66;;;0.52;84.04
41102;BME280;26845;50.190;19.178;2023-02-04T11:55:34;99800.41;;;0.40;83.69
41102;BME280;26845;50.190;19.178;2023-02-04T11:58:00;99808.05;;;0.28;83.59
41102;BME280;26845;50.190;19.178;2023-02-04T12:00:31;99804.17;;;0.20;84.25
41102;BME280;26845;50.190;19.178;2023-02-04T12:03:02;99803.64;;;0.20;84.07
41102;BME280;26845;50.190;19.178;2023-02-04T12:05:38;99805.16;;;0.19;84.25
41102;BME280;26845;50.190;19.178;2023-02-04T12:08:23;99803.33;;;0.17;83.87
41102;BME280;26845;50.190;19.178;2023-02-04T12:11:09;99805.36;;;0.15;83.76
41102;BME280;26845;50.190;19.178;2023-02-04T12:13:51;99802.58;;;0.10;82.76
41102;BME280;26845;50.190;19.178;2023-02-04T12:16:17;99805.83;;;0.04;82.23
41102;BME280;26845;50.190;19.178;2023-02-04T12:18:44;99810.85;;;-0.02;83.27
41102;BME280;26845;50.190;19.178;2023-02-04T12:21:10;99815.29;;;-0.01;83.91
41102;BME280;26845;50.190;19.178;2023-02-04T12:23:36;99820.83;;;-0.00;84.21
41102;BME280;26845;50.190;19.178;2023-02-04T12:26:03;99826.02;;;0.06;84.53
41102;BME280;26845;50.190;19.178;2023-02-04T12:28:29;99831.80;;;0.12;84.13
41102;BME280;26845;50.190;19.178;2023-02-04T12:30:56;99833.59;;;0.12;83.01
41102;BME280;26845;50.190;19.178;2023-02-04T12:33:22;99831.13;;;0.11;83.40
41102;BME280;26845;50.190;19.178;2023-02-04T12:35:48;99835.67;;;0.17;83.83
41102;BME280;26845;50.190;19.178;2023-02-04T12:38:14;99838.14;;;0.28;83.96
41102;BME280;26845;50.190;19.178;2023-02-04T12:40:40;99841.23;;;0.30;83.32
41102;BME280;26845;50.190;19.178;2023-02-04T12:43:06;99847.56;;;0.27;82.30
41102;BME280;26845;50.190;19.178;2023-02-04T12:45:33;99852.44;;;0.18;82.74
41102;BME280;26845;50.190;19.178;2023-02-04T12:47:59;99853.29;;;0.16;82.23
41102;BME280;26845;50.190;19.178;2023-02-04T12:50:25;99856.70;;;0.17;82.83
41102;BME280;26845;50.190;19.178;2023-02-04T12:52:53;99854.64;;;0.22;82.91
41102;BME280;26845;50.190;19.178;2023-02-04T12:55:20;99856.02;;;0.22;82.71
41102;BME280;26845;50.190;19.178;2023-02-04T12:57:46;99849.27;;;0.25;83.35
41102;BME280;26845;50.190;19.178;2023-02-04T13:00:13;99854.40;;;0.29;83.33
41102;BME280;26845;50.190;19.178;2023-02-04T13:02:40;99864.11;;;0.30;82.97
41102;BME280;26845;50.190;19.178;2023-02-04T13:05:07;99863.86;;;0.25;82.33
41102;BME280;26845;50.190;19.178;2023-02-04T13:07:34;99865.13;;;0.20;82.35